This site, now in its 15th season, is a labour of love and fun from one of Ottawa's most avid time trialists and number crunchers. It adheres to and is permitted by the laws of Canada, promotes the objectives of every bicycle club whose results are shown, and is donated free of charge by myself for your enjoyment and usage. If you would like results from series you ride in to be shown here, give me (celia@drmath.ca) a shout!


Index Page
ATT OTT WTT AATT CFCTT VVVTT
Help resultformat:
Case-sensitive

OBC Open TT Series - 2019-Aug-01 - 15km (Rockliffe Pkwy) (EvtFactor = 0.9628)

Ottawa Weather (18:00): Mostly Cloudy. Temp.erature: 26.8C, Wind: SW 9km/h, Humidex: *, Relative humidity: 28%, Dew point: 7C, Pressure: 102.0kPa, Visibility: 24km.
Ottawa Weather (19:00): Mostly Cloudy. Temp.erature: 24.9C, Wind: WSW 13km/h, Humidex: 26, Relative humidity: 39%, Dew point: 10C, Pressure: 102.0kPa, Visibility: 24km.
Ottawa Weather (20:00): Mostly Cloudy. Temp.erature: 22.8C, Wind: WSW 8km/h, Humidex: 25, Relative humidity: 48%, Dew point: 11C, Pressure: 102.0kPa, Visibility: 24km.

Send photos with description (when/where/what) of yourself on or off of bike to celia@drmath.ca

 
 

BESTS?
 
1 Miles, Carson IND 19:15 46.753 1/65 SEM 1/5  
2 Sherboneau, Mark RWR 19:22 46.472 2/65 VBM 1/11 0.9443
3 Boileau, Greg NTF 19:32 46.075 3/65 VBM 2/11 0.9374
4 Manners, Mark WQW 19:59 45.038 4/65 VAM 1/9 0.9630
5 Tremblay, Patrick RPO 20:01 44.963 5/65 VBM 3/11  
6 St-Pierre, Martin RDO 20:04 44.850 6/65 VBM 4/11 0.9533
7 Rendall, Glen  RWR 20:12 44.554 7/65 VCM 1/11 0.9681
8 Diaz, Rodrigo  OBC/EUR 20:15 44.444 8/65 VBM 5/11 0.9514
Guillenette, Jacques RWR 20:15 44.444 8/65 VAM 2/9 0.9877
10 Katz, Joel  OBC 20:35 43.725 10/65 VDM 1/8 0.9831
11 Moon, Clay RWR 20:41 43.513 11/65 SEM 2/5 0.9976
12 Leavitt, Jeff OBC 20:46 43.339 12/65 VAM 3/9 1.0639
13 Martin, David OBC 21:00 42.857 13/65 VCM 2/11 1.0706
14 Girard, Nicolas CDO 21:09 42.553 14/65 CAM 1/1 0.9581
15 Burge, Craig  CYC 21:17 42.287 15/65 VCM 3/11 1.0048
16 Trafford, Brian RWR 21:22 42.122 16/65 SEM 3/5  
17 Lagueux, Frederic RPO 21:25 42.023 17/65 VBM 6/11 0.9745
Y 18 Bernard, Sophie OBC 21:26 41.991 18/65 SEF 1/2 1.1087
19 Milette, Laury OBC 21:36 41.667 19/65 JUF 1/2 1.0423
20 Almeralla, Sergio WQW 21:44 41.411 20/65 VBM 7/11 1.0255
21 Page, Graham OBC/NTF 21:45 41.379 21/65 VAM 4/9 1.0255
22 Padilla, Alberto RDO 21:54 41.096 22/65 VDM 2/8  
23 Budgell, Glen  OBC 22:00 40.909 23/65 VDM 3/8 1.0555
24 Drouin, Marcel OBC 22:28 40.059 24/65 VCM 4/11 0.9955
25 Posthuma, Hans  OBC 22:31 39.970 25/65 VDM 4/8 0.9802
Y 26 Kandoy, Meylina OBC 22:33 39.911 26/65 VCF 1/4 1.0679
27 Campbell, Colin  OBC 22:36 39.823 27/65 VCM 5/11 0.9246
Clarke, Shawn SRC/CYC 22:36 39.823 27/65 VAM 5/9 1.1435
29 Corpuz, John OBC 22:43 39.618 29/65 VAM 6/9 1.0999
30 Thompson, William OBC 22:45 39.560 30/65 VCM 6/11 0.9545
31 Redshaw, Russ  OBC 22:46 39.531 31/65 VDM 5/8 0.9847
32 Rivoche, Michael OBC 23:01 39.102 32/65 VDM 6/8 0.9892
33 Basu, Ben  OBC 23:07 38.933 33/65 VCM 7/11 1.0284
34 Manjikian, Sevak OBC 23:13 38.765 34/65 VBM 8/11 0.9935
35 Morvan, Jacques  OBC 23:17 38.654 35/65 VEM 1/7 0.9957
Schmidt, Nicholas OBC 23:17 38.654 35/65 SEM 4/5 1.0021
37 Deavy, Carol  RPO 23:25 38.434 37/65 VCF 2/4 1.0677
38 Kuronuma, Yuhji OBC 23:41 38.001 38/65 VAM 7/9 1.1598
39 Hinz, David OBC 23:44 37.921 39/65 VCM 8/11 1.1618
40 DeVidi, Robert  OBC 23:45 37.895 40/65 VCM 9/11 0.9564
41 Messier, Jill WQW 23:47 37.842 41/65 SEF 2/2 0.9084
42 Arsenault, Ariane OBC 23:59 37.526 42/65 CAF 1/1 0.8974
43 Gilchrist, Ryan  OBC 24:06 37.344 43/65 VCM 10/11 1.0146
44 Deschamps, Martin WQW 24:19 37.012 44/65 VBM 9/11 0.9575
45 Persaud, Richard OBC 24:35 36.610 45/65 SEM 5/5 1.1096
46 Forget, Emilie OBC 24:36 36.585 46/65 JUF 2/2 1.0246
Johnson, Byron  OBC 24:36 36.585 46/65 VEM 2/7 1.0183
48 Boulanger, Gaetan  IND 24:43 36.413 48/65 VEM 3/7 0.9386
49 Bédard-Hinz, Brigid OBC 24:48 36.290 49/65 VBF 1/1 1.2132
50 Hicks, Bob  OBC 24:51 36.217 50/65 VEM 4/7  
51 English. Kevin OBC 24:55 36.120 51/65 VAM 8/9  
A 52 Burdett, Avery  OBC 24:59 36.024 52/65 VFM 1/1 1.0000
53 Hauschildt, Gunter OBC 25:07 35.833 53/65 VCM 11/11 0.9434
54 Veilleux, François OBC 25:10 35.762 54/65 VBM 10/11 1.0485
55 Ingham, Alison  OBC/RWR 25:45 34.951 55/65 VCF 3/4  
56 Shand, Peter OBC 25:46 34.929 56/65 VDM 7/8 0.9904
57 Levi, Cheryl OBC 26:05 34.505 57/65 VCF 4/4 0.9848
58 Stulburg, Tamir OBC 26:18 34.221 58/65 VAM 9/9  
59 Mijal, Vello OBC 26:23 34.112 59/65 VEM 5/7  
Revesz, Erika  OBC 26:23 34.112 59/65 VDF 1/2 0.9423
61 McInnis, Celia  OBC 26:47 33.603 61/65 VDF 2/2 1.0359
62 Dore, Morley OBC 27:08 33.170 62/65 VEM 6/7 1.2486
63 Fortier, Frederic OBC 27:11 33.109 63/65 VBM 11/11 0.8989
64 Moerman, Bram  OBC 27:20 32.927 64/65 VEM 7/7 0.7977
65 Monette, Gary WQW 27:51 32.316 65/65 VDM 8/8 0.9628
 
Average Speed of all of the above 65 finishes (975km in 25:06:31):38.831
>>>Average of the Average Speeds for these 65 finishes39.188<<<
 

The number of data records shown above is 65
The server processing of your query took: 1 wallclock secs ( 0.08 usr + 0.01 sys = 0.09 CPU)

Thanks to our Helpers: Michel Bernier, Mark Manners, Alex McKnight, Jess Raymond, Peter Tregunno

     


Apr 19 (Good Friday)
May 2 May 7 (10km) May 9 May 14 (10km) May 16 May 21 (10km) May 23 May 28 May 28 (10km) May 30
Jun 2 (40km) Jun 4 Jun 4 Jun 6 Jun 11 Jun 11 Jun 13 Jun 18 Jun 18 Jun 20 Jun 25 Jun 25 Jun 27 Jun 30 (40km)
Jul 2 Jul 2 Jul 4 Jul 9 Jul 9 Jul 11 (cancelled - lightning) Jul 16 Jul 16 Jul 18 Jul 23 Jul 23 Jul 25 Jul 28 (40km) Jul 30 Jul 30
  Aug 1  
Aug 6 Aug 6 Aug 8 Aug 13 Aug 13 Aug 15 Aug 20 Aug 20 Aug 22

OTT Rankings
Best       Best by category
WTT Rankings for All Participants
5 Best Speeds (≥3 15km, ≤1 10km)     5 Best Speeds (≥3 15km, ≤1 10km) by category
OTT Best Three 15km Rankings
Overall     by category     age-Hcap Female   age-Hcap Male
Other years
TT Calculator All TT People All TT events
ABC Home VVV Home
CKAP GOLD MEDAL
Other Links

Note: OTT data from 2003 through 2006-Apr-14 and 2007-Apr-06-? and WTT from 2008-? is taken from the official OBC site.

Please send your comments and suggestions to: Celia McInnis
Copyright © 1998-2011 Celia McInnis. All rights reserved. Links are welcomed.